createdAt,value
2023-11-05T00:02:40.153Z,99863.16
2023-11-05T00:07:43.178Z,99877.31
2023-11-05T00:12:45.390Z,99877.34
2023-11-05T00:17:47.599Z,99885.69
2023-11-05T00:22:49.772Z,99893.56
2023-11-05T00:27:51.883Z,99873.47
2023-11-05T00:32:54.040Z,99895.69
2023-11-05T00:37:56.256Z,99883.03
2023-11-05T00:43:16.932Z,99909.25
2023-11-05T00:48:19.186Z,99880.31
2023-11-05T00:53:25.755Z,99883.72
2023-11-05T00:58:29.622Z,99897.47
2023-11-05T01:03:33.066Z,99887.50
2023-11-05T01:08:35.636Z,99905.94
2023-11-05T01:13:37.814Z,99882.75
2023-11-05T01:18:44.474Z,99890.84
2023-11-05T01:23:46.901Z,99880.03
2023-11-05T01:28:49.506Z,99883.22
2023-11-05T01:33:51.684Z,99868.28
2023-11-05T01:38:53.792Z,99870.53
2023-11-05T01:43:56.221Z,99863.47
2023-11-05T01:48:59.814Z,99893.38
2023-11-05T01:54:02.164Z,99867.81
2023-11-05T01:59:05.445Z,99852.41
2023-11-05T02:04:09.865Z,99850.78
2023-11-05T02:09:12.560Z,99849.47
2023-11-05T02:14:15.383Z,99844.31
2023-11-05T02:19:17.533Z,99859.00
2023-11-05T02:24:20.249Z,99856.06
2023-11-05T02:29:22.431Z,99863.72
2023-11-05T02:34:24.556Z,99889.31
2023-11-05T02:39:29.646Z,99898.78
2023-11-05T02:44:31.811Z,99905.94
2023-11-05T02:49:34.699Z,99912.53
2023-11-05T02:54:36.841Z,99883.38
2023-11-05T02:59:38.996Z,99891.47
2023-11-05T03:04:41.197Z,99905.72
2023-11-05T03:09:45.223Z,99902.31
2023-11-05T03:14:47.357Z,99908.09
2023-11-05T03:19:49.495Z,99907.72
2023-11-05T03:24:51.661Z,99898.88
2023-11-05T03:29:53.767Z,99906.47
2023-11-05T03:34:56.344Z,99890.59
2023-11-05T03:39:58.557Z,99880.09
2023-11-05T03:45:00.858Z,99892.63
2023-11-05T03:50:03.127Z,99893.88
2023-11-05T03:55:06.230Z,99905.97
2023-11-05T04:00:10.884Z,99895.34
2023-11-05T04:05:15.813Z,99889.19
2023-11-05T04:10:18.483Z,99906.91
2023-11-05T04:15:20.667Z,99905.44
2023-11-05T04:20:22.914Z,99909.34
2023-11-05T04:25:25.043Z,99913.50
2023-11-05T04:30:27.150Z,99932.88
2023-11-05T04:35:29.228Z,99932.97
2023-11-05T04:40:31.418Z,99935.09
2023-11-05T04:45:35.719Z,99913.94
2023-11-05T04:50:38.195Z,99931.13
2023-11-05T04:55:40.351Z,99929.00
2023-11-05T05:00:43.041Z,99926.06
2023-11-05T05:05:45.498Z,99915.91
2023-11-05T05:10:47.812Z,99912.66
2023-11-05T05:15:50.018Z,99943.69
2023-11-05T05:20:53.117Z,99918.59
2023-11-05T05:25:55.266Z,99929.16
2023-11-05T05:30:57.486Z,99939.31
2023-11-05T05:35:59.645Z,99943.06
2023-11-05T05:41:01.918Z,99954.72
2023-11-05T05:46:04.398Z,99966.19
2023-11-05T05:51:13.993Z,99952.69
2023-11-05T05:56:16.133Z,99956.56
2023-11-05T06:01:20.151Z,99966.00
2023-11-05T06:06:25.204Z,99953.59
2023-11-05T06:11:28.722Z,99971.16
2023-11-05T06:16:30.827Z,99981.00
2023-11-05T06:21:32.988Z,99993.34
2023-11-05T06:26:35.111Z,99989.81
2023-11-05T06:31:37.289Z,99996.19
2023-11-05T06:36:57.584Z,100013.59
2023-11-05T06:41:59.772Z,99986.81
2023-11-05T06:47:01.921Z,100036.34
2023-11-05T06:52:04.329Z,100031.50
2023-11-05T06:57:07.295Z,100034.09
2023-11-05T07:02:14.497Z,100039.91
2023-11-05T07:07:16.665Z,100034.50
2023-11-05T07:12:18.837Z,100024.03
2023-11-05T07:17:21.357Z,100033.34
2023-11-05T07:22:23.676Z,100039.94
2023-11-05T07:27:25.977Z,100037.69
2023-11-05T07:32:28.283Z,99971.78
2023-11-05T07:37:30.570Z,99993.91
2023-11-05T07:42:32.913Z,100003.63
2023-11-05T07:47:35.063Z,100024.41
2023-11-05T07:52:37.302Z,100019.63
2023-11-05T07:57:39.960Z,99989.81
2023-11-05T08:02:42.369Z,100014.44
2023-11-05T08:07:44.643Z,100002.38
2023-11-05T08:12:46.936Z,99994.78
2023-11-05T08:17:49.221Z,99997.31
2023-11-05T08:22:51.454Z,99998.94
2023-11-05T08:27:55.194Z,99988.75
2023-11-05T08:32:57.634Z,99986.09
2023-11-05T08:37:59.779Z,99979.16
2023-11-05T08:43:03.386Z,99991.41
2023-11-05T08:48:06.059Z,99986.97
2023-11-05T08:53:09.170Z,99990.06
2023-11-05T08:58:11.390Z,99976.56
2023-11-05T09:03:13.872Z,99963.16
2023-11-05T09:08:16.293Z,99971.50
2023-11-05T09:13:18.643Z,99959.66
2023-11-05T09:18:20.894Z,99960.81
2023-11-05T09:23:23.466Z,99941.44
2023-11-05T09:28:30.981Z,99935.66
2023-11-05T09:33:33.205Z,99953.13
2023-11-05T09:38:35.857Z,99931.38
2023-11-05T09:43:37.980Z,99946.22
2023-11-05T09:48:40.224Z,99945.47
2023-11-05T09:53:42.437Z,99939.00
2023-11-05T09:58:45.231Z,99934.38
2023-11-05T10:03:48.387Z,99910.72
2023-11-05T10:08:50.803Z,99907.19
2023-11-05T10:13:53.032Z,99904.78
2023-11-05T10:18:56.441Z,99900.72
2023-11-05T10:24:00.586Z,99880.78
2023-11-05T10:29:03.376Z,99882.91
2023-11-05T10:34:08.321Z,99857.50
2023-11-05T10:39:12.285Z,99851.72
2023-11-05T10:44:16.742Z,99847.88
2023-11-05T10:49:20.155Z,99838.56
2023-11-05T10:54:23.255Z,99818.59
2023-11-05T10:59:36.025Z,99815.88
2023-11-05T11:04:39.057Z,99792.41
2023-11-05T11:09:41.856Z,99786.41
2023-11-05T11:14:43.997Z,99801.03
2023-11-05T11:19:46.731Z,99797.16
2023-11-05T11:24:49.256Z,99779.63
2023-11-05T11:29:51.565Z,99763.19
2023-11-05T11:34:53.742Z,99772.97
2023-11-05T11:39:58.291Z,99765.88
2023-11-05T11:45:00.743Z,99766.31
2023-11-05T11:50:10.753Z,99778.59
2023-11-05T11:55:13.047Z,99768.78
2023-11-05T12:00:17.920Z,99772.28
2023-11-05T12:05:22.173Z,99767.19
2023-11-05T12:10:24.739Z,99750.25
2023-11-05T12:15:28.535Z,99712.56
2023-11-05T12:20:31.489Z,99751.72
2023-11-05T12:25:34.564Z,99728.53
2023-11-05T12:30:37.144Z,99725.63
2023-11-05T12:35:39.369Z,99716.88
2023-11-05T12:40:42.072Z,99729.78
2023-11-05T12:45:45.028Z,99664.59
2023-11-05T12:50:47.449Z,99690.50
2023-11-05T12:55:58.605Z,99678.66
2023-11-05T13:01:02.817Z,99692.31
2023-11-05T13:06:10.632Z,99697.50
2023-11-05T13:11:15.146Z,99683.97
2023-11-05T13:16:18.615Z,99667.78
2023-11-05T13:21:21.178Z,99671.28
2023-11-05T13:26:23.252Z,99687.84
2023-11-05T13:31:27.988Z,99688.41
2023-11-05T13:36:30.531Z,99682.69
2023-11-05T13:41:32.759Z,99665.16
2023-11-05T13:46:35.023Z,99662.16
2023-11-05T13:51:37.301Z,99671.53
2023-11-05T13:56:40.172Z,99676.28
2023-11-05T14:01:42.455Z,99690.16
2023-11-05T14:06:45.541Z,99673.84
2023-11-05T14:11:47.719Z,99671.94
2023-11-05T14:16:49.922Z,99684.31
2023-11-05T14:21:54.549Z,99669.38
2023-11-05T14:26:58.018Z,99677.78
2023-11-05T14:32:01.027Z,99685.72
2023-11-05T14:37:03.727Z,99694.47
2023-11-05T14:42:06.362Z,99687.13
2023-11-05T14:47:09.713Z,99617.84
2023-11-05T14:52:12.916Z,99640.34
2023-11-05T14:57:17.139Z,99683.66
2023-11-05T15:02:19.677Z,99679.06
2023-11-05T15:07:21.967Z,99606.00
2023-11-05T15:12:24.197Z,99587.03
2023-11-05T15:17:26.683Z,99664.78
2023-11-05T15:22:30.194Z,99667.34
2023-11-05T15:27:32.498Z,99693.09
2023-11-05T15:32:43.378Z,99689.84
2023-11-05T15:37:45.714Z,99704.06
2023-11-05T15:42:51.721Z,99699.16
2023-11-05T15:47:54.338Z,99698.34
2023-11-05T15:52:56.668Z,99727.00
2023-11-05T15:57:59.972Z,99713.38
2023-11-05T16:03:02.372Z,99739.25
2023-11-05T16:08:04.823Z,99749.88
2023-11-05T16:13:07.035Z,99751.53
2023-11-05T16:18:14.231Z,99752.31
2023-11-05T16:23:17.198Z,99755.31
2023-11-05T16:28:19.544Z,99761.78
2023-11-05T16:33:25.107Z,99777.56
2023-11-05T16:38:27.743Z,99757.34
2023-11-05T16:43:29.938Z,99775.56
2023-11-05T16:48:32.125Z,99746.09
2023-11-05T16:53:34.714Z,99785.31
2023-11-05T16:58:43.310Z,99783.97
2023-11-05T17:03:48.959Z,99789.94
2023-11-05T17:08:51.124Z,99754.53
2023-11-05T17:13:53.341Z,99775.81
2023-11-05T17:19:10.497Z,99797.09
2023-11-05T17:24:13.559Z,99812.03
2023-11-05T17:29:22.899Z,99820.47
2023-11-05T17:34:25.344Z,99815.94
2023-11-05T17:39:27.611Z,99811.88
2023-11-05T17:44:30.517Z,99810.44
2023-11-05T17:49:33.908Z,99824.03
2023-11-05T17:54:36.713Z,99830.34
2023-11-05T17:59:39.626Z,99804.47
2023-11-05T18:04:42.131Z,99809.91
2023-11-05T18:09:44.670Z,99803.28
2023-11-05T18:19:50.781Z,99830.47
2023-11-05T18:24:53.167Z,99818.00
2023-11-05T18:29:58.818Z,99826.41
2023-11-05T18:35:01.787Z,99820.31
2023-11-05T18:40:04.227Z,99833.78
2023-11-05T18:45:09.157Z,99823.69
2023-11-05T18:50:11.374Z,99816.53
2023-11-05T18:55:13.578Z,99813.94
2023-11-05T19:00:16.228Z,99818.44
2023-11-05T19:05:18.493Z,99806.19
2023-11-05T19:10:20.622Z,99808.75
2023-11-05T19:15:23.359Z,99809.13
2023-11-05T19:20:25.679Z,99820.28
2023-11-05T19:25:27.817Z,99824.06
2023-11-05T19:30:30.000Z,99820.47
2023-11-05T19:35:32.676Z,99809.72
2023-11-05T19:40:35.579Z,99824.88
2023-11-05T19:45:38.199Z,99810.28
2023-11-05T19:50:40.737Z,99842.56
2023-11-05T19:55:43.909Z,99826.47
2023-11-05T20:00:46.090Z,99818.16
2023-11-05T20:05:48.387Z,99828.34
2023-11-05T20:10:50.752Z,99829.66
2023-11-05T20:15:52.923Z,99831.97
2023-11-05T20:20:57.013Z,99828.78
2023-11-05T20:25:59.173Z,99830.94
2023-11-05T20:31:01.411Z,99808.84
2023-11-05T20:36:03.600Z,99846.59
2023-11-05T20:41:05.767Z,99829.69
2023-11-05T20:46:08.102Z,99825.59
2023-11-05T20:51:20.521Z,99832.75
2023-11-05T20:56:22.824Z,99833.13
2023-11-05T21:01:25.021Z,99817.75
2023-11-05T21:06:27.451Z,99808.88
2023-11-05T21:11:29.646Z,99820.22
2023-11-05T21:16:32.173Z,99812.06
2023-11-05T21:21:34.467Z,99829.03
2023-11-05T21:26:36.683Z,99825.94
2023-11-05T21:31:39.891Z,99832.53
2023-11-05T21:36:42.040Z,99800.06
2023-11-05T21:41:48.763Z,99818.66
2023-11-05T21:46:50.918Z,99832.47
2023-11-05T21:51:53.056Z,99824.72
2023-11-05T21:56:55.182Z,99848.81
2023-11-05T22:01:57.572Z,99855.63
2023-11-05T22:06:59.697Z,99849.66
2023-11-05T22:12:02.047Z,99846.53
2023-11-05T22:17:04.430Z,99850.81
2023-11-05T22:22:07.053Z,99831.38
2023-11-05T22:27:09.481Z,99823.56
2023-11-05T22:32:12.200Z,99824.03
2023-11-05T22:37:14.542Z,99822.69
2023-11-05T22:42:16.744Z,99807.91
2023-11-05T22:47:19.031Z,99823.06
2023-11-05T22:52:21.273Z,99787.94
2023-11-05T22:57:23.426Z,99827.72
2023-11-05T23:02:26.389Z,99845.41
2023-11-05T23:07:28.569Z,99839.03
2023-11-05T23:12:30.823Z,99839.94
2023-11-05T23:17:33.083Z,99837.72
2023-11-05T23:22:35.301Z,99828.63
2023-11-05T23:27:37.575Z,99859.13
2023-11-05T23:32:39.830Z,99849.50
2023-11-05T23:37:42.946Z,99848.06
2023-11-05T23:42:45.084Z,99838.31
2023-11-05T23:47:47.333Z,99844.16
2023-11-05T23:52:52.524Z,99860.50
2023-11-05T23:57:57.565Z,99854.56
